Monday, June 25, 2018, 12:43 AM GMT
Back to Local

CWNH, Riviere Du Loup, Que.

Location: , , Canada Lat: 47.8
Local Time: 12:43 AM GMT ( 0:43 GMT) Lon: -69.55
Time Zone: GMT Elev: 485 ft

Show me the last for .
Show Coded

Time T Td Feel RH Dir Speed Gust Alt SLP Vis Weather Sky Remarks
2018-06-25 00:00 57 50 - 78 - Calm - - 29.88 0 None
2018-06-24 23:00 58 49 - 70 290° 1 - - 29.87 0 None
2018-06-24 22:00 60 49 - 67 300° 3 - - 29.87 0 None
2018-06-24 21:00 61 48 - 61 320° 3 - - 29.87 0 None
2018-06-24 20:00 60 49 - 68 350° 3 - - 29.86 0 None
2018-06-24 19:00 58 49 - 72 340° 5 - - 29.87 0 None
2018-06-24 18:00 58 48 - 67 30° 6 - - 29.86 0 None
2018-06-24 17:00 57 47 - 69 50° 2 - - 29.85 0 None
2018-06-24 16:00 56 47 - 74 10° 9 - - 29.84 0 None
2018-06-24 15:00 57 47 - 68 10° 10 17 - 29.83 0 None
2018-06-24 14:00 58 47 - 68 10° 10 - - 29.81 0 None
2018-06-24 13:00 56 48 - 74 20° 10 - - 29.81 0 Peak wind: 20 mph (18 kts) from 30° at 32 min
2018-06-24 12:00 56 47 - 70 30° 10 18 - 29.79 0 None
2018-06-24 11:00 56 44 - 64 30° 9 - - 29.76 0 None
2018-06-24 10:00 59 43 - 54 30° 9 - - 29.74 0 None
2018-06-24 09:00 60 53 - 79 360° 6 - - 29.73 0 None
2018-06-24 08:00 63 54 - 72 240° 5 - - 29.70 0 None
2018-06-24 07:00 65 53 - 64 220° 5 - - 29.70 0 None
2018-06-24 06:00 66 53 - 62 210° 7 - - 29.70 0 None
2018-06-24 05:00 67 55 - 66 200° 7 - - 29.70 0 None
2018-06-24 04:00 68 57 - 67 210° 6 - - 29.70 0 None
2018-06-24 03:00 68 57 - 67 210° 7 - - 29.71 0 None
2018-06-24 02:00 69 57 - 66 190° 6 - - 29.72 0 None
2018-06-24 01:00 70 56 - 62 200° 7 - - 29.72 0 None

Support USWX by starting your Amazon purchase here.